< < Back
Terminal Aerodrome Forecast


Current Version              Previous Versions:   1  2  3  4  5  6  7  8  9  

Terminal Aerodrome Forecast

914
FTUS42 KILM 011200 CCA
TAFILM
TAF COR
KILM 011200Z 0112/0212 27008KT P6SM SCT035 SCT250
      TEMPO 0112/0113 SCT008
     FM011800 24008KT P6SM VCSH SCT040 SCT080
     FM012200 21010KT P6SM FEW050 SCT120
     FM020400 22006KT P6SM VCSH BKN080=

Latest METAR

800
SAUS70 KWBC 011200 RRU
MTRILM
METAR KILM 011153Z AUTO 24011KT 10SM CLR 24/20 A2998 RMK AO2 SLP151
T02390200 10256 20228 53006


USA.gov is the U.S. government's official web portal to all federal, state and local government web resources and services.